Time;durP1;ratioP1;P1;durP2;ratioP2;P2;SDS_P1;SDS_P2;PMS_P1;PMS_P2;Temp;Humidity;BMP_temperature;BMP_pressure;BME280_temperature;BME280_humidity;BME280_pressure;Samples;Min_cycle;Max_cycle;Signal;HPM_P1;HPM_P2
2023/06/06 00:00:19;;;;;;;8.05;4.70;;;;;;;;;;5044863;28;20049;-64
2023/06/06 00:02:46;;;;;;;8.82;4.43;;;;;;;;;;5044445;28;20115;-65
2023/06/06 00:05:13;;;;;;;8.20;4.30;;;;;;;;;;5045565;28;20060;-65
2023/06/06 00:07:42;;;;;;;5.75;3.58;;;;;;;;;;5043749;28;20136;-65
2023/06/06 00:10:09;;;;;;;9.65;4.43;;;;;;;;;;5028512;28;20843;-65
2023/06/06 00:12:37;;;;;;;12.20;5.40;;;;;;;;;;5044627;28;20107;-64
2023/06/06 00:15:05;;;;;;;8.10;5.10;;;;;;;;;;5042658;28;20112;-64
2023/06/06 00:17:32;;;;;;;7.78;4.25;;;;;;;;;;5043545;28;20998;-65
2023/06/06 00:19:58;;;;;;;7.32;4.78;;;;;;;;;;5024926;28;20521;-65
2023/06/06 00:22:25;;;;;;;6.10;4.50;;;;;;;;;;5044638;28;20499;-64
2023/06/06 00:24:52;;;;;;;10.77;4.85;;;;;;;;;;5047022;28;20103;-65
2023/06/06 00:27:19;;;;;;;8.02;4.43;;;;;;;;;;5044517;28;20669;-65
2023/06/06 00:29:45;;;;;;;7.25;4.30;;;;;;;;;;5043017;28;20058;-65
2023/06/06 00:32:11;;;;;;;6.68;4.28;;;;;;;;;;5043944;28;20062;-64
2023/06/06 00:34:38;;;;;;;7.70;4.22;;;;;;;;;;5044704;28;20057;-65
2023/06/06 00:37:04;;;;;;;6.55;4.10;;;;;;;;;;5043858;28;20064;-63
2023/06/06 00:39:31;;;;;;;8.48;4.45;;;;;;;;;;5044063;28;20671;-63
2023/06/06 00:41:57;;;;;;;6.60;4.45;;;;;;;;;;5040894;28;20140;-63
2023/06/06 00:44:23;;;;;;;8.32;4.72;;;;;;;;;;5043494;28;20079;-64
2023/06/06 00:46:50;;;;;;;7.15;4.38;;;;;;;;;;5026294;28;20134;-64
2023/06/06 00:49:17;;;;;;;5.78;3.90;;;;;;;;;;5041083;28;20148;-64
2023/06/06 00:51:43;;;;;;;8.68;4.40;;;;;;;;;;5031609;28;20066;-65
2023/06/06 00:54:12;;;;;;;10.85;4.53;;;;;;;;;;5044655;28;20580;-64
2023/06/06 00:56:39;;;;;;;7.57;4.30;;;;;;;;;;5043743;28;20585;-63
2023/06/06 00:59:05;;;;;;;7.53;4.28;;;;;;;;;;5044890;28;20050;-64
2023/06/06 01:01:36;;;;;;;8.55;4.35;;;;;;;;;;5042592;28;20077;-64
2023/06/06 01:04:07;;;;;;;8.32;4.60;;;;;;;;;;5044033;28;20057;-64
2023/06/06 01:06:35;;;;;;;11.23;4.68;;;;;;;;;;5044192;28;20053;-64
2023/06/06 01:09:04;;;;;;;8.18;3.72;;;;;;;;;;5025623;28;21416;-60
2023/06/06 01:11:45;;;;;;;8.63;4.32;;;;;;;;;;5042752;28;20064;-64
2023/06/06 01:14:18;;;;;;;13.18;4.68;;;;;;;;;;5043891;28;20053;-64
2023/06/06 01:16:49;;;;;;;6.30;3.70;;;;;;;;;;5026606;28;21221;-65
2023/06/06 01:19:19;;;;;;;6.97;4.28;;;;;;;;;;5043452;28;20045;-63
2023/06/06 01:21:46;;;;;;;7.57;4.35;;;;;;;;;;5044324;28;20085;-64
2023/06/06 01:24:13;;;;;;;6.63;4.28;;;;;;;;;;5042134;28;20053;-64
2023/06/06 01:26:39;;;;;;;6.40;4.13;;;;;;;;;;5042308;28;20184;-64
2023/06/06 01:29:05;;;;;;;8.50;4.78;;;;;;;;;;5041994;28;20143;-64
2023/06/06 01:31:39;;;;;;;7.93;5.07;;;;;;;;;;5043945;28;20057;-64
2023/06/06 01:34:11;;;;;;;10.52;4.60;;;;;;;;;;5041707;28;20578;-62
2023/06/06 01:36:45;;;;;;;7.07;4.40;;;;;;;;;;5029622;28;20057;-64
2023/06/06 01:39:15;;;;;;;7.03;4.25;;;;;;;;;;5043168;28;20103;-63
2023/06/06 01:41:42;;;;;;;6.25;4.10;;;;;;;;;;5042846;28;20392;-65
2023/06/06 01:44:10;;;;;;;7.95;4.40;;;;;;;;;;5024107;28;20144;-64
2023/06/06 01:46:37;;;;;;;7.57;4.10;;;;;;;;;;5042891;28;20132;-64
2023/06/06 01:49:04;;;;;;;9.65;5.07;;;;;;;;;;5025217;28;20057;-64
2023/06/06 01:51:30;;;;;;;7.43;4.88;;;;;;;;;;5025275;28;20185;-64
2023/06/06 01:53:58;;;;;;;6.50;3.90;;;;;;;;;;5040516;28;20112;-65
2023/06/06 01:56:25;;;;;;;5.63;4.38;;;;;;;;;;5041657;28;20085;-64
2023/06/06 01:58:52;;;;;;;8.93;4.80;;;;;;;;;;5042899;28;20065;-64
2023/06/06 02:01:18;;;;;;;9.02;4.25;;;;;;;;;;5043435;28;20057;-64
2023/06/06 02:03:45;;;;;;;8.25;5.05;;;;;;;;;;5042922;28;21020;-65
2023/06/06 02:06:11;;;;;;;9.20;4.47;;;;;;;;;;5043552;28;20092;-64
2023/06/06 02:08:38;;;;;;;7.18;4.20;;;;;;;;;;5042807;28;20084;-65
2023/06/06 02:11:04;;;;;;;7.25;5.22;;;;;;;;;;5041758;28;20148;-64
2023/06/06 02:13:30;;;;;;;7.07;4.22;;;;;;;;;;5041195;28;20053;-65
2023/06/06 02:15:57;;;;;;;6.53;4.32;;;;;;;;;;5043718;28;20054;-64
2023/06/06 02:18:23;;;;;;;8.35;4.32;;;;;;;;;;5041041;28;20103;-64
2023/06/06 02:20:49;;;;;;;5.70;4.25;;;;;;;;;;5042371;28;20061;-64
2023/06/06 02:23:17;;;;;;;8.32;3.72;;;;;;;;;;5042594;28;20499;-65
2023/06/06 02:25:43;;;;;;;6.63;3.97;;;;;;;;;;5042324;28;20054;-65
2023/06/06 02:28:11;;;;;;;7.80;4.43;;;;;;;;;;5041385;28;20057;-64
2023/06/06 02:30:37;;;;;;;7.90;4.20;;;;;;;;;;5042418;28;20103;-64
2023/06/06 02:33:03;;;;;;;8.50;4.53;;;;;;;;;;5040398;28;20054;-65
2023/06/06 02:35:30;;;;;;;6.40;4.13;;;;;;;;;;5042129;28;20053;-64
2023/06/06 02:37:56;;;;;;;8.45;4.45;;;;;;;;;;5040725;28;20144;-64
2023/06/06 02:40:23;;;;;;;7.85;4.88;;;;;;;;;;5042867;28;21498;-64
2023/06/06 02:42:49;;;;;;;7.22;4.22;;;;;;;;;;5041236;28;20498;-65
2023/06/06 02:45:16;;;;;;;7.65;5.22;;;;;;;;;;5042776;28;20053;-64
2023/06/06 02:47:42;;;;;;;11.55;5.60;;;;;;;;;;5042674;28;20065;-64
2023/06/06 02:50:10;;;;;;;7.85;4.68;;;;;;;;;;5042824;28;20132;-64
2023/06/06 02:52:38;;;;;;;10.20;4.40;;;;;;;;;;5041223;28;20055;-65
2023/06/06 02:55:05;;;;;;;9.23;4.50;;;;;;;;;;5041928;28;20053;-65
2023/06/06 02:57:31;;;;;;;10.48;4.43;;;;;;;;;;5041768;28;20049;-64
2023/06/06 03:00:00;;;;;;;7.95;4.43;;;;;;;;;;5042206;28;20049;-63
2023/06/06 03:02:27;;;;;;;6.72;3.53;;;;;;;;;;5042683;28;20428;-65
2023/06/06 03:04:55;;;;;;;6.85;3.78;;;;;;;;;;5046597;28;20498;-65
2023/06/06 03:07:22;;;;;;;6.60;4.53;;;;;;;;;;5043446;28;20062;-64
2023/06/06 03:09:48;;;;;;;8.80;4.78;;;;;;;;;;5041850;28;20057;-65
2023/06/06 03:12:14;;;;;;;6.82;4.30;;;;;;;;;;5041528;28;20530;-64
2023/06/06 03:14:41;;;;;;;7.82;4.18;;;;;;;;;;5042550;28;20063;-64
2023/06/06 03:17:22;;;;;;;9.18;3.95;;;;;;;;;;5032053;28;20076;-65
2023/06/06 03:19:48;;;;;;;6.03;4.40;;;;;;;;;;5040897;28;20048;-65
2023/06/06 03:22:16;;;;;;;8.48;4.63;;;;;;;;;;5041609;28;20057;-64
2023/06/06 03:24:45;;;;;;;6.65;4.22;;;;;;;;;;5041255;28;20804;-64
2023/06/06 03:27:13;;;;;;;7.63;4.57;;;;;;;;;;5042839;28;20089;-63
2023/06/06 03:29:39;;;;;;;6.75;4.22;;;;;;;;;;5041702;28;20062;-64
2023/06/06 03:32:06;;;;;;;7.65;3.90;;;;;;;;;;5023404;28;20042;-64
2023/06/06 03:34:33;;;;;;;8.10;4.05;;;;;;;;;;5040917;28;20053;-65
2023/06/06 03:36:59;;;;;;;6.47;4.22;;;;;;;;;;5041706;28;20058;-64
2023/06/06 03:39:25;;;;;;;5.78;3.92;;;;;;;;;;5042251;28;20049;-64
2023/06/06 03:41:52;;;;;;;7.80;5.00;;;;;;;;;;5043049;28;20053;-64
2023/06/06 03:44:18;;;;;;;8.40;3.90;;;;;;;;;;5021613;28;20088;-64
2023/06/06 03:46:44;;;;;;;5.47;3.85;;;;;;;;;;5042321;28;20133;-64
2023/06/06 03:49:11;;;;;;;8.45;4.45;;;;;;;;;;5041419;28;20812;-64
2023/06/06 03:51:40;;;;;;;7.70;4.00;;;;;;;;;;5042222;28;20056;-65
2023/06/06 03:54:06;;;;;;;5.38;3.95;;;;;;;;;;5040789;28;20053;-65
2023/06/06 03:56:32;;;;;;;7.28;3.95;;;;;;;;;;5040679;28;20182;-64
2023/06/06 03:58:59;;;;;;;6.88;4.40;;;;;;;;;;5041766;28;20055;-65
2023/06/06 04:01:31;;;;;;;8.80;4.40;;;;;;;;;;5039660;28;20077;-65
2023/06/06 04:03:57;;;;;;;8.70;4.20;;;;;;;;;;5040952;28;20073;-64
2023/06/06 04:06:25;;;;;;;9.65;4.60;;;;;;;;;;5041902;28;20057;-64
2023/06/06 04:08:51;;;;;;;6.53;4.13;;;;;;;;;;5043028;28;20499;-63
2023/06/06 04:11:18;;;;;;;4.95;3.40;;;;;;;;;;5045774;28;20053;-65
2023/06/06 04:13:44;;;;;;;6.38;4.32;;;;;;;;;;5044484;28;20480;-65
2023/06/06 04:16:10;;;;;;;6.68;4.10;;;;;;;;;;5027548;28;20057;-64
2023/06/06 04:18:37;;;;;;;7.80;4.20;;;;;;;;;;5042428;28;20054;-65
2023/06/06 04:21:03;;;;;;;8.75;4.22;;;;;;;;;;5043325;28;20056;-64
2023/06/06 04:23:29;;;;;;;8.05;3.95;;;;;;;;;;5044659;28;20064;-65
2023/06/06 04:25:56;;;;;;;10.07;4.13;;;;;;;;;;5046797;28;20570;-64
2023/06/06 04:28:22;;;;;;;7.28;3.67;;;;;;;;;;5045302;28;20089;-65
2023/06/06 04:30:52;;;;;;;7.72;3.95;;;;;;;;;;5047131;28;20049;-64
2023/06/06 04:33:19;;;;;;;8.05;3.25;;;;;;;;;;5045048;28;20049;-64
2023/06/06 04:35:46;;;;;;;8.35;4.20;;;;;;;;;;5046378;28;20913;-64
2023/06/06 04:38:13;;;;;;;6.35;3.88;;;;;;;;;;5026989;28;20723;-64
2023/06/06 04:40:40;;;;;;;7.10;3.92;;;;;;;;;;5045586;28;20059;-64
2023/06/06 04:43:27;;;;;;;13.32;4.45;;;;;;;;;;5044572;28;20529;-64
2023/06/06 04:45:57;;;;;;;10.13;4.40;;;;;;;;;;5042295;28;20053;-64
2023/06/06 04:48:25;;;;;;;7.55;4.70;;;;;;;;;;5026714;28;20172;-63
2023/06/06 04:50:53;;;;;;;7.22;4.35;;;;;;;;;;5043782;28;20522;-65
2023/06/06 04:53:19;;;;;;;8.40;4.45;;;;;;;;;;5036025;28;20804;-64
2023/06/06 04:55:47;;;;;;;6.45;3.92;;;;;;;;;;5042934;28;20107;-64
2023/06/06 04:58:14;;;;;;;6.88;4.00;;;;;;;;;;5042969;28;20537;-65
2023/06/06 05:00:45;;;;;;;12.15;4.43;;;;;;;;;;5041809;28;20049;-65
2023/06/06 05:03:11;;;;;;;6.80;4.20;;;;;;;;;;5043369;28;20482;-64
2023/06/06 05:05:38;;;;;;;8.38;4.47;;;;;;;;;;5044919;28;20481;-63
2023/06/06 05:08:05;;;;;;;9.00;4.13;;;;;;;;;;5042934;28;20890;-65
2023/06/06 05:10:31;;;;;;;12.38;4.88;;;;;;;;;;5042581;28;20059;-65
2023/06/06 05:12:57;;;;;;;8.85;5.00;;;;;;;;;;5042654;28;20045;-64
2023/06/06 05:15:24;;;;;;;7.65;4.63;;;;;;;;;;5043235;28;20053;-65
2023/06/06 05:17:54;;;;;;;6.88;4.18;;;;;;;;;;5044141;28;20054;-64
2023/06/06 05:20:23;;;;;;;9.52;4.05;;;;;;;;;;5031582;28;20053;-64
2023/06/06 05:22:50;;;;;;;8.65;4.40;;;;;;;;;;5056566;28;20108;-64
2023/06/06 05:25:16;;;;;;;7.57;4.88;;;;;;;;;;5027001;28;20049;-64
2023/06/06 05:27:43;;;;;;;8.02;4.78;;;;;;;;;;5043879;28;20515;-64
2023/06/06 05:30:10;;;;;;;9.07;4.78;;;;;;;;;;5043208;28;20871;-64
2023/06/06 05:32:36;;;;;;;6.78;4.88;;;;;;;;;;5039324;28;20159;-63
2023/06/06 05:35:03;;;;;;;13.93;4.95;;;;;;;;;;5040394;28;20085;-64
2023/06/06 05:37:29;;;;;;;9.25;4.70;;;;;;;;;;5023162;28;20131;-64
2023/06/06 05:39:55;;;;;;;7.95;4.32;;;;;;;;;;5042531;28;20064;-64
2023/06/06 05:42:22;;;;;;;8.82;4.05;;;;;;;;;;5042820;28;20058;-64
2023/06/06 05:44:52;;;;;;;9.25;4.10;;;;;;;;;;5042414;28;20054;-64
2023/06/06 05:47:18;;;;;;;7.68;5.18;;;;;;;;;;5040993;28;20120;-64
2023/06/06 05:49:44;;;;;;;7.63;4.30;;;;;;;;;;5039583;28;20065;-65
2023/06/06 05:52:12;;;;;;;15.52;5.18;;;;;;;;;;5042964;28;20058;-64
2023/06/06 05:54:38;;;;;;;6.20;4.60;;;;;;;;;;5041281;28;20049;-62
2023/06/06 05:57:20;;;;;;;8.25;4.43;;;;;;;;;;5042747;28;20498;-64
2023/06/06 05:59:46;;;;;;;14.43;4.90;;;;;;;;;;5041491;28;20806;-65
2023/06/06 06:02:13;;;;;;;9.43;6.25;;;;;;;;;;5040722;28;20397;-63
2023/06/06 06:04:41;;;;;;;6.63;4.63;;;;;;;;;;5044322;28;20096;-64
2023/06/06 06:07:08;;;;;;;12.27;4.93;;;;;;;;;;5047099;28;20053;-65
2023/06/06 06:09:35;;;;;;;8.57;4.80;;;;;;;;;;5042706;28;20144;-65
2023/06/06 06:12:01;;;;;;;14.05;4.72;;;;;;;;;;5024531;28;20589;-64
2023/06/06 06:14:28;;;;;;;12.45;4.82;;;;;;;;;;5041991;28;20053;-64
2023/06/06 06:16:54;;;;;;;6.50;4.13;;;;;;;;;;5041999;28;20054;-65
2023/06/06 06:19:20;;;;;;;6.70;4.13;;;;;;;;;;5041496;28;20049;-65
2023/06/06 06:21:47;;;;;;;9.25;4.43;;;;;;;;;;5042286;28;20504;-65
2023/06/06 06:24:13;;;;;;;7.38;4.38;;;;;;;;;;5039952;28;20141;-65
2023/06/06 06:26:40;;;;;;;8.77;4.80;;;;;;;;;;5040316;28;20056;-65
2023/06/06 06:29:06;;;;;;;8.80;4.13;;;;;;;;;;5039997;28;20053;-65
2023/06/06 06:31:32;;;;;;;14.95;4.93;;;;;;;;;;5038293;28;20050;-66
2023/06/06 06:33:59;;;;;;;8.68;4.25;;;;;;;;;;5040408;28;20057;-65
2023/06/06 06:36:25;;;;;;;11.27;4.43;;;;;;;;;;5039942;28;20055;-66
2023/06/06 06:38:52;;;;;;;11.48;4.82;;;;;;;;;;5040213;28;20145;-65
2023/06/06 06:41:18;;;;;;;7.60;4.47;;;;;;;;;;5042896;28;20113;-66
2023/06/06 06:43:45;;;;;;;12.25;4.47;;;;;;;;;;5042501;28;20050;-65
2023/06/06 06:46:11;;;;;;;8.45;4.78;;;;;;;;;;5041725;28;20064;-63
2023/06/06 06:48:39;;;;;;;9.85;4.22;;;;;;;;;;5041661;28;20058;-64
2023/06/06 06:51:05;;;;;;;6.13;4.53;;;;;;;;;;5037458;28;20058;-63
2023/06/06 06:53:33;;;;;;;9.48;4.60;;;;;;;;;;5031259;28;20057;-64
2023/06/06 06:55:59;;;;;;;6.95;4.30;;;;;;;;;;5015345;28;20155;-64
2023/06/06 06:58:33;;;;;;;11.73;5.35;;;;;;;;;;5027593;28;20530;-64
2023/06/06 07:01:03;;;;;;;7.57;4.57;;;;;;;;;;5041280;28;20216;-64
2023/06/06 07:03:34;;;;;;;6.75;3.92;;;;;;;;;;5042943;28;20054;-65
2023/06/06 07:06:02;;;;;;;7.28;4.65;;;;;;;;;;5056216;28;20065;-65
2023/06/06 07:08:30;;;;;;;6.85;3.85;;;;;;;;;;5036500;28;20060;-65
2023/06/06 07:10:56;;;;;;;7.95;4.50;;;;;;;;;;5042108;28;20915;-65
2023/06/06 07:13:23;;;;;;;7.38;4.25;;;;;;;;;;5042698;28;20228;-66
2023/06/06 07:15:49;;;;;;;8.82;4.00;;;;;;;;;;5041685;28;20057;-66
2023/06/06 07:18:16;;;;;;;5.53;3.45;;;;;;;;;;5043442;28;20049;-65
2023/06/06 07:20:43;;;;;;;7.38;3.67;;;;;;;;;;5041869;28;20063;-65
2023/06/06 07:23:09;;;;;;;8.05;4.03;;;;;;;;;;5040957;28;20609;-67
2023/06/06 07:25:36;;;;;;;7.85;4.47;;;;;;;;;;5042230;28;20064;-66
2023/06/06 07:28:03;;;;;;;8.32;3.80;;;;;;;;;;5041640;28;20574;-65
2023/06/06 07:30:29;;;;;;;6.07;4.32;;;;;;;;;;5043228;28;20192;-66
2023/06/06 07:32:56;;;;;;;8.05;4.55;;;;;;;;;;5023301;28;20059;-64
2023/06/06 07:35:24;;;;;;;9.88;4.25;;;;;;;;;;5043258;28;20439;-64
2023/06/06 07:37:51;;;;;;;5.70;3.92;;;;;;;;;;5043099;28;20057;-64
2023/06/06 07:40:17;;;;;;;10.57;3.67;;;;;;;;;;5041699;28;20861;-63
2023/06/06 07:42:43;;;;;;;8.65;4.18;;;;;;;;;;5042797;28;20053;-64
2023/06/06 07:45:10;;;;;;;11.85;3.92;;;;;;;;;;5042993;28;20103;-64
2023/06/06 07:47:37;;;;;;;12.60;3.38;;;;;;;;;;5046858;28;20049;-65
2023/06/06 07:50:04;;;;;;;6.20;4.00;;;;;;;;;;5044551;28;20049;-63
2023/06/06 07:52:32;;;;;;;5.85;3.72;;;;;;;;;;5045884;28;20099;-64
2023/06/06 07:54:59;;;;;;;8.23;3.10;;;;;;;;;;5045539;28;20058;-65
2023/06/06 07:57:26;;;;;;;8.60;3.22;;;;;;;;;;5045126;28;20057;-64
2023/06/06 07:59:53;;;;;;;6.38;3.20;;;;;;;;;;5046183;28;20526;-64
2023/06/06 08:02:20;;;;;;;3.85;3.28;;;;;;;;;;5045022;28;20083;-65
2023/06/06 08:04:46;;;;;;;8.63;3.88;;;;;;;;;;5046270;28;20144;-65
2023/06/06 08:07:13;;;;;;;7.68;3.42;;;;;;;;;;5044833;28;20566;-65
2023/06/06 08:09:40;;;;;;;6.38;3.75;;;;;;;;;;5045519;28;20064;-65
2023/06/06 08:12:07;;;;;;;9.05;4.18;;;;;;;;;;5044952;28;20140;-65
2023/06/06 08:14:35;;;;;;;11.50;4.55;;;;;;;;;;5045790;28;20656;-65
2023/06/06 08:17:05;;;;;;;5.50;3.30;;;;;;;;;;5036822;28;20140;-64
2023/06/06 08:19:32;;;;;;;9.15;4.10;;;;;;;;;;5044909;28;20053;-67
2023/06/06 08:21:58;;;;;;;13.07;4.22;;;;;;;;;;5044545;28;21908;-67
2023/06/06 08:24:24;;;;;;;8.00;3.92;;;;;;;;;;5045048;28;20073;-65
2023/06/06 08:26:51;;;;;;;5.47;3.65;;;;;;;;;;5045813;28;20168;-65
2023/06/06 08:29:18;;;;;;;9.63;4.32;;;;;;;;;;5050857;28;20696;-65
2023/06/06 08:31:45;;;;;;;7.68;3.85;;;;;;;;;;5044342;28;20057;-65
2023/06/06 08:34:11;;;;;;;5.82;3.60;;;;;;;;;;5042693;28;20064;-64
2023/06/06 08:36:38;;;;;;;4.68;3.67;;;;;;;;;;5043252;28;20093;-65
2023/06/06 08:39:06;;;;;;;10.45;3.92;;;;;;;;;;5042036;28;20562;-66
2023/06/06 08:41:33;;;;;;;4.63;3.65;;;;;;;;;;5043216;28;20046;-65
2023/06/06 08:44:00;;;;;;;8.38;4.35;;;;;;;;;;5044716;28;20054;-65
2023/06/06 08:46:29;;;;;;;8.60;4.45;;;;;;;;;;5046104;28;20108;-65
2023/06/06 08:48:56;;;;;;;7.20;3.88;;;;;;;;;;5045607;28;20053;-65
2023/06/06 08:51:24;;;;;;;5.80;3.60;;;;;;;;;;5043787;28;20104;-64
2023/06/06 08:53:51;;;;;;;6.45;4.10;;;;;;;;;;5042813;28;20057;-64
2023/06/06 08:56:22;;;;;;;5.40;3.78;;;;;;;;;;5044482;28;20050;-63
2023/06/06 08:58:49;;;;;;;5.75;3.60;;;;;;;;;;5029495;28;20072;-65
2023/06/06 09:01:17;;;;;;;9.95;3.47;;;;;;;;;;5043022;28;20115;-65
2023/06/06 09:03:45;;;;;;;6.10;3.92;;;;;;;;;;5045234;28;20111;-65
2023/06/06 09:06:12;;;;;;;7.07;4.10;;;;;;;;;;5044210;28;20091;-65
2023/06/06 09:08:39;;;;;;;9.65;4.38;;;;;;;;;;5044962;28;20136;-64
2023/06/06 09:11:05;;;;;;;10.55;4.65;;;;;;;;;;5044393;28;20080;-65
2023/06/06 09:13:32;;;;;;;8.32;4.57;;;;;;;;;;5044377;28;20060;-64
2023/06/06 09:16:00;;;;;;;11.43;4.07;;;;;;;;;;5026528;28;20470;-64
2023/06/06 09:18:27;;;;;;;7.70;4.55;;;;;;;;;;5045435;28;20057;-64
2023/06/06 09:20:54;;;;;;;7.57;4.00;;;;;;;;;;5065009;28;20136;-64
2023/06/06 09:23:20;;;;;;;16.10;4.25;;;;;;;;;;5053027;28;20056;-65
2023/06/06 09:25:47;;;;;;;7.45;4.10;;;;;;;;;;5044904;28;20172;-66
2023/06/06 09:28:15;;;;;;;10.27;4.15;;;;;;;;;;5043927;28;20083;-64
2023/06/06 09:30:41;;;;;;;5.72;3.58;;;;;;;;;;5041161;28;20053;-65
2023/06/06 09:33:08;;;;;;;7.80;4.35;;;;;;;;;;5050773;28;20054;-64
2023/06/06 09:35:35;;;;;;;7.32;4.13;;;;;;;;;;5044400;28;20053;-64
2023/06/06 09:38:08;;;;;;;5.13;3.65;;;;;;;;;;5043021;28;20498;-64
2023/06/06 09:40:44;;;;;;;7.72;4.88;;;;;;;;;;5043648;28;20085;-64
2023/06/06 09:43:11;;;;;;;6.05;3.70;;;;;;;;;;5042461;28;20437;-63
2023/06/06 09:45:51;;;;;;;9.30;4.93;;;;;;;;;;5044616;28;20958;-64
2023/06/06 09:48:21;;;;;;;7.35;4.38;;;;;;;;;;5043681;28;20053;-64
2023/06/06 09:50:48;;;;;;;6.45;4.00;;;;;;;;;;5044106;28;20557;-64
2023/06/06 09:53:15;;;;;;;4.95;3.78;;;;;;;;;;5042558;28;20063;-64
2023/06/06 09:55:42;;;;;;;7.43;3.75;;;;;;;;;;5044652;28;20555;-65
2023/06/06 09:58:10;;;;;;;5.68;3.38;;;;;;;;;;5025717;28;20053;-64
2023/06/06 10:00:40;;;;;;;6.75;3.72;;;;;;;;;;5042509;28;20170;-64
2023/06/06 10:03:06;;;;;;;4.57;4.05;;;;;;;;;;5044335;28;20865;-64
2023/06/06 10:05:34;;;;;;;7.70;3.75;;;;;;;;;;5025487;28;20060;-64
2023/06/06 10:08:01;;;;;;;4.85;3.38;;;;;;;;;;5042995;28;20084;-64
2023/06/06 10:10:27;;;;;;;4.90;3.65;;;;;;;;;;5040918;28;20752;-64
2023/06/06 10:12:55;;;;;;;5.78;3.80;;;;;;;;;;5044594;28;20053;-65
2023/06/06 10:15:21;;;;;;;7.88;3.92;;;;;;;;;;5047667;28;20093;-64
2023/06/06 10:17:48;;;;;;;6.63;3.70;;;;;;;;;;5047665;28;20590;-64
2023/06/06 10:20:16;;;;;;;6.15;3.13;;;;;;;;;;5044076;28;20053;-64
2023/06/06 10:22:43;;;;;;;13.20;4.15;;;;;;;;;;5043577;28;20049;-64
2023/06/06 10:25:12;;;;;;;6.78;3.85;;;;;;;;;;5042832;28;20049;-64
2023/06/06 10:27:56;;;;;;;9.00;4.10;;;;;;;;;;5044288;28;20169;-65
2023/06/06 10:30:41;;;;;;;8.25;3.92;;;;;;;;;;5043208;28;20057;-64
2023/06/06 10:33:08;;;;;;;5.15;3.70;;;;;;;;;;5039902;28;20061;-64
2023/06/06 10:35:36;;;;;;;8.82;4.13;;;;;;;;;;5040783;28;20511;-64
2023/06/06 10:38:04;;;;;;;5.75;4.10;;;;;;;;;;5041274;28;20569;-64
2023/06/06 10:40:48;;;;;;;5.18;3.50;;;;;;;;;;5043363;28;20057;-64
2023/06/06 10:43:15;;;;;;;6.38;3.40;;;;;;;;;;5043484;28;20049;-64
2023/06/06 10:46:00;;;;;;;4.20;3.20;;;;;;;;;;5043723;28;20169;-65
2023/06/06 10:48:37;;;;;;;4.80;3.30;;;;;;;;;;5043324;28;20588;-64
2023/06/06 10:51:03;;;;;;;5.97;4.47;;;;;;;;;;5043429;28;20104;-65
2023/06/06 10:53:30;;;;;;;6.75;3.88;;;;;;;;;;5043393;28;20049;-64
2023/06/06 10:55:57;;;;;;;5.95;4.00;;;;;;;;;;5043022;28;20543;-65
2023/06/06 10:58:32;;;;;;;7.45;3.72;;;;;;;;;;5025923;28;20049;-64
2023/06/06 11:01:03;;;;;;;6.95;4.22;;;;;;;;;;5042581;28;20065;-65
2023/06/06 11:03:32;;;;;;;7.75;3.72;;;;;;;;;;5041681;28;20121;-65
2023/06/06 11:05:59;;;;;;;6.40;4.03;;;;;;;;;;5042322;28;20145;-65
2023/06/06 11:08:36;;;;;;;5.55;3.47;;;;;;;;;;5039375;28;20066;-65
2023/06/06 11:11:15;;;;;;;7.10;3.97;;;;;;;;;;5042666;28;20103;-65
2023/06/06 11:13:56;;;;;;;7.03;3.50;;;;;;;;;;5041148;28;20779;-66
2023/06/06 11:16:29;;;;;;;8.02;3.83;;;;;;;;;;5041630;28;20084;-65
2023/06/06 11:19:02;;;;;;;4.38;3.30;;;;;;;;;;5044395;28;20122;-65
2023/06/06 11:21:29;;;;;;;7.22;3.17;;;;;;;;;;5045926;28;20053;-66
2023/06/06 11:23:56;;;;;;;4.20;2.85;;;;;;;;;;5052397;28;20132;-64
2023/06/06 11:26:22;;;;;;;6.28;3.53;;;;;;;;;;5045857;28;20506;-66
2023/06/06 11:28:49;;;;;;;6.28;3.72;;;;;;;;;;5046271;28;20057;-66
2023/06/06 11:31:20;;;;;;;4.55;3.30;;;;;;;;;;5046620;28;20466;-64
2023/06/06 11:33:46;;;;;;;5.63;3.92;;;;;;;;;;5046249;28;20419;-65
2023/06/06 11:36:13;;;;;;;9.75;4.20;;;;;;;;;;5046007;28;20053;-65
2023/06/06 11:38:40;;;;;;;6.68;3.92;;;;;;;;;;5047842;28;20543;-66
2023/06/06 11:41:07;;;;;;;5.65;3.47;;;;;;;;;;5046614;28;20061;-65
2023/06/06 11:43:33;;;;;;;7.57;3.42;;;;;;;;;;5046560;28;20053;-64
2023/06/06 11:46:03;;;;;;;6.38;3.90;;;;;;;;;;5046067;28;20856;-64
2023/06/06 11:48:30;;;;;;;8.48;3.10;;;;;;;;;;5046057;28;20058;-64
2023/06/06 11:50:56;;;;;;;8.13;3.55;;;;;;;;;;5046585;28;20527;-64
2023/06/06 11:53:33;;;;;;;8.57;3.55;;;;;;;;;;5046050;28;20049;-65
2023/06/06 11:55:59;;;;;;;8.45;3.10;;;;;;;;;;5046041;28;20077;-64
2023/06/06 11:58:26;;;;;;;7.00;3.38;;;;;;;;;;5046333;28;20050;-65
2023/06/06 12:00:56;;;;;;;5.35;3.17;;;;;;;;;;5046275;28;20136;-66
2023/06/06 12:03:27;;;;;;;6.07;3.55;;;;;;;;;;5045650;28;20069;-66
2023/06/06 12:06:00;;;;;;;4.82;2.75;;;;;;;;;;5045775;28;20081;-65
2023/06/06 12:08:27;;;;;;;5.07;3.20;;;;;;;;;;5046184;28;20053;-66
2023/06/06 12:10:53;;;;;;;6.75;3.13;;;;;;;;;;5045866;28;20180;-65
2023/06/06 12:13:32;;;;;;;9.38;3.22;;;;;;;;;;5048503;28;20700;-65
2023/06/06 12:15:59;;;;;;;4.60;3.22;;;;;;;;;;5065330;28;20049;-65
2023/06/06 12:18:26;;;;;;;4.07;2.65;;;;;;;;;;5066267;28;20136;-64
2023/06/06 12:20:53;;;;;;;4.97;3.13;;;;;;;;;;5065606;28;20084;-65
2023/06/06 12:23:29;;;;;;;4.00;2.85;;;;;;;;;;5050638;28;20076;-65
2023/06/06 12:25:57;;;;;;;6.78;3.22;;;;;;;;;;5045539;28;20057;-65
2023/06/06 12:28:26;;;;;;;4.75;3.20;;;;;;;;;;5045528;28;20862;-65
2023/06/06 12:30:54;;;;;;;7.20;3.40;;;;;;;;;;5027345;28;20057;-65
2023/06/06 12:33:22;;;;;;;7.22;3.20;;;;;;;;;;5045522;28;20061;-65
2023/06/06 12:35:48;;;;;;;3.92;2.90;;;;;;;;;;5045458;28;20104;-64
2023/06/06 12:38:18;;;;;;;5.03;3.15;;;;;;;;;;5059932;28;21000;-65
2023/06/06 12:40:52;;;;;;;4.15;3.00;;;;;;;;;;5056689;28;20160;-64
2023/06/06 12:43:18;;;;;;;4.27;3.00;;;;;;;;;;5045993;28;20057;-64
2023/06/06 12:45:45;;;;;;;6.78;4.07;;;;;;;;;;5044512;28;20276;-64
2023/06/06 12:48:11;;;;;;;6.97;2.80;;;;;;;;;;5044836;28;20053;-64
2023/06/06 12:50:40;;;;;;;6.03;3.22;;;;;;;;;;5045689;28;20144;-64
2023/06/06 12:53:08;;;;;;;5.60;2.72;;;;;;;;;;5043433;28;20045;-64
2023/06/06 12:55:35;;;;;;;7.43;3.25;;;;;;;;;;5044696;28;20053;-66
2023/06/06 12:58:02;;;;;;;4.38;2.80;;;;;;;;;;5045153;28;20638;-66
2023/06/06 13:00:28;;;;;;;10.05;3.42;;;;;;;;;;5043892;28;20137;-65
2023/06/06 13:02:55;;;;;;;3.38;2.72;;;;;;;;;;5044698;28;20545;-65
2023/06/06 13:05:21;;;;;;;10.50;3.60;;;;;;;;;;5044866;28;20054;-65
2023/06/06 13:07:48;;;;;;;6.50;3.15;;;;;;;;;;5045098;28;20111;-65
2023/06/06 13:10:15;;;;;;;8.48;2.67;;;;;;;;;;5044441;28;20049;-65
2023/06/06 13:12:41;;;;;;;12.25;3.67;;;;;;;;;;5045827;28;20116;-64
2023/06/06 13:15:11;;;;;;;5.55;3.45;;;;;;;;;;5044546;28;20152;-64
2023/06/06 13:17:38;;;;;;;5.93;3.78;;;;;;;;;;5044085;28;20088;-64
2023/06/06 13:20:11;;;;;;;5.20;3.28;;;;;;;;;;5044127;28;20053;-64
2023/06/06 13:22:39;;;;;;;4.43;2.75;;;;;;;;;;5044884;28;20085;-64
2023/06/06 13:25:07;;;;;;;6.75;3.30;;;;;;;;;;5044457;28;20054;-65
2023/06/06 13:27:33;;;;;;;4.18;2.85;;;;;;;;;;5044748;28;20127;-65
2023/06/06 13:30:00;;;;;;;5.28;3.22;;;;;;;;;;5044520;28;20057;-66
2023/06/06 13:32:26;;;;;;;7.13;3.10;;;;;;;;;;5044613;28;20168;-66
2023/06/06 13:34:53;;;;;;;4.65;3.38;;;;;;;;;;5044157;28;20053;-64
2023/06/06 13:37:21;;;;;;;9.98;3.25;;;;;;;;;;5026702;28;20089;-65
2023/06/06 13:39:47;;;;;;;4.80;3.40;;;;;;;;;;5044275;28;20107;-65
2023/06/06 13:42:14;;;;;;;7.85;4.03;;;;;;;;;;5043253;28;20104;-66
2023/06/06 13:44:41;;;;;;;4.38;3.38;;;;;;;;;;5044259;28;20140;-65
2023/06/06 13:47:07;;;;;;;6.03;3.20;;;;;;;;;;5043660;28;20054;-66
2023/06/06 13:49:34;;;;;;;4.97;3.17;;;;;;;;;;5043995;28;20060;-66
2023/06/06 13:52:00;;;;;;;5.05;3.05;;;;;;;;;;5043930;28;20058;-65
2023/06/06 13:54:27;;;;;;;7.82;3.42;;;;;;;;;;5044096;28;20565;-65
2023/06/06 13:56:54;;;;;;;5.38;3.33;;;;;;;;;;5044574;28;20076;-65
2023/06/06 13:59:21;;;;;;;7.13;3.60;;;;;;;;;;5041427;28;20080;-64
2023/06/06 14:01:50;;;;;;;5.60;3.17;;;;;;;;;;5036489;28;20049;-64
2023/06/06 14:04:17;;;;;;;6.13;3.20;;;;;;;;;;5043782;28;20487;-65
2023/06/06 14:06:45;;;;;;;5.25;3.67;;;;;;;;;;5043428;28;20498;-65
2023/06/06 14:09:14;;;;;;;6.30;3.75;;;;;;;;;;5026965;28;20140;-65
2023/06/06 14:11:44;;;;;;;3.80;3.08;;;;;;;;;;5044408;28;20049;-65
2023/06/06 14:14:12;;;;;;;6.13;3.63;;;;;;;;;;5042773;28;20112;-66
2023/06/06 14:16:39;;;;;;;11.93;3.70;;;;;;;;;;5034014;28;20867;-65
2023/06/06 14:19:12;;;;;;;9.25;3.72;;;;;;;;;;5042130;28;20556;-65
2023/06/06 14:24:09;;;;;;;6.35;3.50;;;;;;;;;;5043896;28;20058;-64
2023/06/06 14:26:36;;;;;;;7.03;3.50;;;;;;;;;;5043501;28;20045;-65
2023/06/06 14:29:02;;;;;;;7.38;3.47;;;;;;;;;;5043109;28;20116;-65
2023/06/06 14:31:28;;;;;;;6.50;3.67;;;;;;;;;;5051424;28;20104;-64
2023/06/06 14:33:55;;;;;;;5.93;3.15;;;;;;;;;;5042552;28;20108;-65
2023/06/06 14:36:22;;;;;;;10.68;3.40;;;;;;;;;;5048376;28;20458;-65
2023/06/06 14:38:48;;;;;;;5.88;3.20;;;;;;;;;;5029069;28;20622;-64
2023/06/06 14:41:15;;;;;;;6.60;4.05;;;;;;;;;;5043225;28;20057;-65
2023/06/06 14:43:41;;;;;;;6.07;3.75;;;;;;;;;;5042049;28;20111;-64
2023/06/06 14:46:08;;;;;;;6.78;3.55;;;;;;;;;;5042877;28;20054;-65